createdAt,value
2024-04-16T00:00:15.773Z,54.78
2024-04-16T00:01:15.812Z,55.95
2024-04-16T00:02:15.789Z,58.09
2024-04-16T00:03:15.816Z,60.61
2024-04-16T00:04:15.871Z,62.08
2024-04-16T00:05:15.941Z,58.48
2024-04-16T00:06:15.820Z,58.68
2024-04-16T00:07:15.866Z,56.68
2024-04-16T00:08:15.853Z,55.10
2024-04-16T00:09:15.883Z,53.92
2024-04-16T00:10:15.936Z,52.74
2024-04-16T00:11:15.893Z,51.00
2024-04-16T00:12:15.897Z,53.11
2024-04-16T00:13:15.960Z,52.51
2024-04-16T00:14:21.070Z,56.64
2024-04-16T00:15:15.924Z,56.76
2024-04-16T00:16:15.928Z,56.93
2024-04-16T00:17:15.948Z,56.06
2024-04-16T00:18:15.977Z,51.62
2024-04-16T00:19:16.049Z,51.91
2024-04-16T00:20:22.550Z,50.56
2024-04-16T00:21:16.023Z,50.65
2024-04-16T00:22:16.128Z,49.54
2024-04-16T00:23:30.543Z,48.89
2024-04-16T00:24:16.205Z,50.74
2024-04-16T00:25:16.265Z,50.79
2024-04-16T00:26:52.078Z,50.93
2024-04-16T00:27:16.325Z,50.71
2024-04-16T00:28:16.412Z,51.96
2024-04-16T00:29:16.375Z,53.05
2024-04-16T00:30:16.344Z,53.04
2024-04-16T00:31:16.377Z,52.75
2024-04-16T00:32:16.368Z,50.36
2024-04-16T00:33:16.382Z,51.79
2024-04-16T00:34:16.511Z,50.00
2024-04-16T00:35:16.365Z,52.69
2024-04-16T00:36:16.387Z,55.25
2024-04-16T00:37:16.399Z,56.12
2024-04-16T00:38:16.400Z,52.75
2024-04-16T00:39:16.401Z,52.94
2024-04-16T00:40:16.468Z,51.37
2024-04-16T00:41:16.430Z,51.23
2024-04-16T00:42:31.055Z,52.63
2024-04-16T00:43:16.494Z,52.84
2024-04-16T00:44:16.456Z,53.28
2024-04-16T00:45:23.070Z,52.94
2024-04-16T00:46:16.453Z,52.78
2024-04-16T00:47:16.491Z,50.89
2024-04-16T00:48:23.109Z,52.45
2024-04-16T00:49:16.483Z,52.72
2024-04-16T00:50:16.447Z,53.20
2024-04-16T00:51:37.449Z,53.86
2024-04-16T00:52:16.469Z,52.90
2024-04-16T00:53:16.473Z,53.44
2024-04-16T00:54:16.495Z,52.98
2024-04-16T00:55:16.586Z,50.76
2024-04-16T00:56:16.472Z,47.05
2024-04-16T00:57:16.495Z,51.98
2024-04-16T00:58:16.502Z,51.10
2024-04-16T00:59:16.507Z,50.00
2024-04-16T01:00:16.493Z,52.73
2024-04-16T01:01:16.613Z,49.70
2024-04-16T01:02:16.505Z,50.00
2024-04-16T01:03:16.570Z,50.00
2024-04-16T01:04:16.587Z,50.35
2024-04-16T01:05:16.523Z,50.29
2024-04-16T01:06:16.526Z,50.00
2024-04-16T01:07:23.141Z,51.42
2024-04-16T01:08:16.528Z,51.57
2024-04-16T01:09:16.537Z,49.66
2024-04-16T01:10:24.087Z,47.22
2024-04-16T01:11:16.570Z,51.45
2024-04-16T01:12:16.549Z,47.14
2024-04-16T01:13:31.141Z,42.43
2024-04-16T01:14:16.794Z,51.44
2024-04-16T01:15:16.874Z,44.91
2024-04-16T01:16:31.656Z,43.68
2024-04-16T01:17:16.961Z,51.44
2024-04-16T01:18:17.067Z,43.23
2024-04-16T01:19:45.573Z,38.18
2024-04-16T01:20:16.942Z,51.52
2024-04-16T01:21:16.955Z,47.40
2024-04-16T01:22:16.991Z,41.91
2024-04-16T01:23:16.966Z,37.01
2024-04-16T01:24:17.003Z,30.89
2024-04-16T01:25:17.029Z,37.83
2024-04-16T01:26:17.001Z,50.00
2024-04-16T01:27:17.010Z,53.57
2024-04-16T01:28:17.022Z,50.73
2024-04-16T01:29:17.016Z,52.26
2024-04-16T01:30:17.027Z,50.00
2024-04-16T01:31:17.049Z,50.00
2024-04-16T01:32:17.092Z,51.33
2024-04-16T01:33:17.079Z,50.65
2024-04-16T01:34:17.093Z,51.12
2024-04-16T01:35:24.587Z,49.96
2024-04-16T01:36:17.079Z,50.11
2024-04-16T01:37:17.116Z,50.39
2024-04-16T01:38:24.088Z,49.72
2024-04-16T01:39:17.109Z,50.16
2024-04-16T01:40:17.249Z,50.17
2024-04-16T01:41:17.123Z,47.90
2024-04-16T01:42:17.131Z,48.21
2024-04-16T01:43:17.169Z,46.16
2024-04-16T01:44:32.108Z,51.59
2024-04-16T01:45:17.142Z,51.78
2024-04-16T01:46:17.180Z,52.10
2024-04-16T01:47:17.167Z,51.92
2024-04-16T01:48:17.191Z,52.60
2024-04-16T01:49:17.195Z,49.81
2024-04-16T01:50:17.206Z,51.45
2024-04-16T01:51:17.191Z,51.28
2024-04-16T01:52:17.255Z,51.02
2024-04-16T01:53:17.219Z,51.19
2024-04-16T01:54:17.222Z,50.00
2024-04-16T01:55:17.266Z,51.63
2024-04-16T01:56:17.243Z,51.90
2024-04-16T01:57:17.227Z,51.25
2024-04-16T01:58:17.293Z,51.02
2024-04-16T01:59:17.247Z,53.44
2024-04-16T02:00:17.249Z,50.62
2024-04-16T02:01:17.313Z,50.37
2024-04-16T02:02:17.260Z,51.10
2024-04-16T02:03:31.595Z,53.51
2024-04-16T02:04:17.350Z,53.68
2024-04-16T02:05:17.281Z,54.09
2024-04-16T02:06:32.096Z,53.92
2024-04-16T02:07:17.364Z,53.73
2024-04-16T02:08:17.349Z,54.27
2024-04-16T02:09:35.596Z,55.00
2024-04-16T02:10:17.470Z,53.86
2024-04-16T02:11:17.378Z,54.89
2024-04-16T02:12:17.394Z,56.36
2024-04-16T02:13:17.410Z,58.16
2024-04-16T02:14:17.401Z,59.92
2024-04-16T02:15:17.403Z,59.30
2024-04-16T02:16:17.464Z,61.46
2024-04-16T02:17:17.429Z,58.98
2024-04-16T02:18:17.508Z,60.76
2024-04-16T02:19:17.501Z,58.35
2024-04-16T02:20:17.473Z,59.25
2024-04-16T02:21:17.476Z,59.64
2024-04-16T02:22:17.498Z,60.73
2024-04-16T02:23:17.506Z,58.13
2024-04-16T02:24:17.523Z,59.84
2024-04-16T02:25:17.526Z,60.69
2024-04-16T02:26:17.531Z,57.28
2024-04-16T02:27:17.557Z,58.29
2024-04-16T02:28:17.625Z,60.26
2024-04-16T02:29:17.574Z,58.87
2024-04-16T02:30:17.571Z,58.58
2024-04-16T02:31:17.638Z,59.49
2024-04-16T02:32:17.714Z,57.04
2024-04-16T02:33:17.615Z,57.14
2024-04-16T02:34:32.732Z,57.18
2024-04-16T02:35:17.621Z,57.42
2024-04-16T02:36:17.630Z,58.20
2024-04-16T02:37:32.624Z,59.07
2024-04-16T02:38:17.642Z,57.46
2024-04-16T02:39:17.680Z,58.47
2024-04-16T02:40:17.687Z,59.49
2024-04-16T02:41:17.680Z,60.13
2024-04-16T02:42:17.696Z,60.94
2024-04-16T02:43:17.730Z,60.21
2024-04-16T02:44:17.746Z,60.04
2024-04-16T02:45:17.752Z,58.09
2024-04-16T02:46:17.771Z,57.71
2024-04-16T02:47:17.802Z,56.34
2024-04-16T02:48:17.809Z,59.56
2024-04-16T02:49:17.835Z,57.26
2024-04-16T02:50:17.800Z,55.03
2024-04-16T02:51:17.825Z,54.15
2024-04-16T02:52:17.888Z,53.02
2024-04-16T02:53:17.836Z,53.35
2024-04-16T02:54:17.861Z,53.17
2024-04-16T02:55:17.889Z,53.40
2024-04-16T02:56:24.613Z,54.12
2024-04-16T02:57:17.883Z,54.26
2024-04-16T02:58:17.938Z,54.15
2024-04-16T02:59:38.920Z,54.24
2024-04-16T03:00:17.914Z,54.36
2024-04-16T03:01:18.035Z,54.91
2024-04-16T03:02:38.989Z,55.66
2024-04-16T03:03:17.994Z,54.43
2024-04-16T03:04:17.984Z,55.61
2024-04-16T03:05:19.185Z,55.94
2024-04-16T03:06:18.992Z,56.72
2024-04-16T03:07:18.021Z,57.80
2024-04-16T03:08:18.014Z,57.12
2024-04-16T03:09:18.053Z,55.33
2024-04-16T03:10:18.295Z,52.54
2024-04-16T03:11:18.047Z,53.01
2024-04-16T03:12:18.058Z,51.57
2024-04-16T03:13:18.158Z,54.84
2024-04-16T03:14:18.073Z,51.59
2024-04-16T03:15:18.159Z,50.08
2024-04-16T03:16:18.107Z,53.79
2024-04-16T03:17:18.137Z,52.17
2024-04-16T03:18:18.130Z,51.40
2024-04-16T03:19:18.156Z,52.81
2024-04-16T03:20:18.136Z,52.95
2024-04-16T03:21:24.207Z,52.21
2024-04-16T03:22:18.158Z,52.37
2024-04-16T03:23:18.244Z,52.58
2024-04-16T03:24:33.118Z,52.86
2024-04-16T03:25:18.208Z,52.42
2024-04-16T03:26:18.170Z,53.04
2024-04-16T03:27:33.123Z,53.67
2024-04-16T03:28:18.183Z,52.47
2024-04-16T03:29:18.185Z,53.04
2024-04-16T03:30:39.232Z,54.09
2024-04-16T03:31:18.257Z,52.48
2024-04-16T03:32:18.334Z,53.60
2024-04-16T03:33:18.221Z,55.16
2024-04-16T03:34:18.280Z,55.52
2024-04-16T03:35:18.239Z,57.63
2024-04-16T03:36:18.247Z,56.07
2024-04-16T03:37:18.270Z,52.22
2024-04-16T03:38:18.262Z,52.18
2024-04-16T03:39:18.247Z,53.08
2024-04-16T03:40:18.376Z,53.63
2024-04-16T03:41:18.258Z,52.33
2024-04-16T03:42:18.268Z,55.13
2024-04-16T03:43:18.300Z,50.00
2024-04-16T03:44:18.269Z,52.29
2024-04-16T03:45:18.282Z,53.66
2024-04-16T03:46:18.310Z,53.53
2024-04-16T03:47:18.322Z,52.20
2024-04-16T03:48:18.407Z,51.95
2024-04-16T03:49:33.243Z,52.73
2024-04-16T03:50:18.302Z,52.90
2024-04-16T03:51:18.301Z,53.37
2024-04-16T03:52:39.334Z,53.85
2024-04-16T03:53:18.322Z,53.00
2024-04-16T03:54:18.315Z,53.87
2024-04-16T03:55:42.745Z,54.81
2024-04-16T03:56:18.401Z,53.03
2024-04-16T03:57:18.328Z,54.22
2024-04-16T03:58:18.374Z,55.75
2024-04-16T03:59:18.384Z,56.65
2024-04-16T04:00:18.430Z,56.13
2024-04-16T04:01:18.365Z,55.23
2024-04-16T04:02:18.358Z,51.81
2024-04-16T04:03:18.385Z,51.65
2024-04-16T04:04:18.447Z,50.00
2024-04-16T04:05:18.482Z,51.41
2024-04-16T04:06:18.438Z,50.06
2024-04-16T04:07:18.444Z,54.34
2024-04-16T04:08:18.435Z,53.56
2024-04-16T04:09:18.493Z,50.00
2024-04-16T04:10:18.564Z,50.59
2024-04-16T04:11:18.680Z,53.07
2024-04-16T04:12:18.441Z,53.84
2024-04-16T04:13:18.577Z,50.28
2024-04-16T04:14:18.450Z,52.17
2024-04-16T04:15:18.464Z,50.00
2024-04-16T04:16:18.531Z,53.65
2024-04-16T04:17:39.558Z,50.98
2024-04-16T04:18:18.519Z,51.20
2024-04-16T04:19:18.506Z,52.05
2024-04-16T04:20:32.651Z,53.11
2024-04-16T04:21:18.589Z,51.37
2024-04-16T04:22:18.535Z,52.01
2024-04-16T04:23:46.155Z,53.06
2024-04-16T04:24:27.532Z,51.23
2024-04-16T04:25:19.565Z,51.60
2024-04-16T04:26:18.537Z,53.08
2024-04-16T04:27:18.542Z,54.65
2024-04-16T04:28:18.572Z,55.25
2024-04-16T04:29:18.647Z,55.04
2024-04-16T04:30:25.874Z,50.00
2024-04-16T04:31:25.956Z,50.00
2024-04-16T04:32:26.064Z,50.00
2024-04-16T04:33:25.995Z,50.00
2024-04-16T04:34:25.970Z,50.00
2024-04-16T04:35:25.989Z,50.15
2024-04-16T04:36:26.046Z,52.09
2024-04-16T04:37:26.162Z,51.23
2024-04-16T04:38:26.059Z,54.46
2024-04-16T04:39:26.079Z,55.27
2024-04-16T04:40:26.115Z,51.96
2024-04-16T04:41:28.265Z,53.06
2024-04-16T04:42:26.152Z,52.16
2024-04-16T04:43:26.210Z,51.91
2024-04-16T04:44:26.226Z,53.68
2024-04-16T04:45:34.054Z,50.86
2024-04-16T04:46:26.373Z,50.93
2024-04-16T04:47:26.366Z,51.16
2024-04-16T04:48:41.097Z,50.87
2024-04-16T04:49:26.364Z,51.02
2024-04-16T04:50:26.372Z,51.43
2024-04-16T04:51:47.391Z,50.81
2024-04-16T04:52:26.436Z,51.08
2024-04-16T04:53:26.498Z,51.76
2024-04-16T04:54:26.438Z,51.77
2024-04-16T04:55:26.471Z,48.56
2024-04-16T04:56:26.488Z,45.72
2024-04-16T04:57:26.493Z,49.23
2024-04-16T04:58:26.539Z,55.00
2024-04-16T04:59:26.530Z,51.82
2024-04-16T05:00:26.553Z,53.03
2024-04-16T05:01:26.730Z,50.89
2024-04-16T05:02:26.615Z,52.23
2024-04-16T05:03:26.607Z,52.19
2024-04-16T05:04:26.633Z,51.70
2024-04-16T05:05:27.053Z,51.53
2024-04-16T05:06:26.639Z,52.46
2024-04-16T05:07:29.552Z,54.90
2024-04-16T05:08:26.670Z,54.93
2024-04-16T05:09:26.688Z,53.58
2024-04-16T05:10:26.881Z,53.53
2024-04-16T05:11:26.792Z,53.25
2024-04-16T05:12:26.743Z,53.49
2024-04-16T05:13:41.637Z,54.12
2024-04-16T05:14:26.785Z,54.31
2024-04-16T05:15:26.805Z,54.98
2024-04-16T05:16:33.617Z,54.89
2024-04-16T05:17:26.923Z,54.42
2024-04-16T05:18:26.996Z,54.90
2024-04-16T05:19:49.576Z,54.86
2024-04-16T05:20:26.913Z,54.34
2024-04-16T05:21:26.920Z,55.32
2024-04-16T05:22:26.965Z,57.39
2024-04-16T05:23:26.967Z,59.11
2024-04-16T05:24:26.994Z,65.69
2024-04-16T05:25:27.081Z,64.86
2024-04-16T05:26:27.032Z,67.81
2024-04-16T05:27:27.136Z,65.13
2024-04-16T05:28:27.235Z,67.46
2024-04-16T05:29:27.113Z,70.02
2024-04-16T05:30:27.591Z,78.46
2024-04-16T05:31:27.148Z,77.80
2024-04-16T05:32:27.184Z,84.62
2024-04-16T05:33:27.177Z,88.24
2024-04-16T05:34:27.210Z,96.45
2024-04-16T05:35:27.569Z,101.15
2024-04-16T05:36:27.223Z,108.30
2024-04-16T05:37:27.259Z,111.91
2024-04-16T05:38:34.175Z,119.12
2024-04-16T05:39:27.262Z,119.37
2024-04-16T05:40:27.607Z,121.00
2024-04-16T05:41:42.056Z,125.69
2024-04-16T05:42:27.311Z,119.86
2024-04-16T05:43:27.439Z,123.25
2024-04-16T05:44:42.068Z,129.82
2024-04-16T05:45:27.341Z,120.06
2024-04-16T05:46:27.382Z,123.86
2024-04-16T05:47:27.437Z,130.69
2024-04-16T05:48:28.545Z,120.49
2024-04-16T05:49:27.441Z,124.57
2024-04-16T05:50:27.430Z,131.34
2024-04-16T05:51:27.434Z,143.42
2024-04-16T05:52:27.583Z,157.25
2024-04-16T05:53:27.475Z,163.65
2024-04-16T05:54:28.566Z,164.18
2024-04-16T05:55:27.529Z,164.86
2024-04-16T05:56:27.584Z,170.24
2024-04-16T05:57:27.653Z,177.97
2024-04-16T05:58:27.771Z,176.63
2024-04-16T05:59:27.817Z,181.91
2024-04-16T06:00:27.986Z,185.42
2024-04-16T06:01:27.984Z,191.30
2024-04-16T06:02:28.104Z,193.89
2024-04-16T06:03:28.128Z,195.48
2024-04-16T06:04:28.215Z,199.77
2024-04-16T06:05:28.294Z,199.04
2024-04-16T06:06:43.075Z,199.67
2024-04-16T06:07:28.373Z,199.92
2024-04-16T06:08:28.459Z,200.91
2024-04-16T06:09:52.134Z,201.28
2024-04-16T06:10:28.458Z,200.00
2024-04-16T06:11:28.398Z,201.50
2024-04-16T06:12:49.416Z,204.06
2024-04-16T06:13:28.460Z,200.17
2024-04-16T06:14:28.424Z,202.19
2024-04-16T06:15:28.465Z,204.58
2024-04-16T06:16:28.672Z,207.51
2024-04-16T06:17:28.483Z,212.35
2024-04-16T06:18:28.489Z,202.01
2024-04-16T06:19:28.506Z,195.50
2024-04-16T06:20:28.501Z,195.93
2024-04-16T06:21:28.519Z,196.82
2024-04-16T06:22:28.551Z,195.75
2024-04-16T06:23:28.528Z,194.04
2024-04-16T06:24:28.543Z,199.79
2024-04-16T06:25:28.694Z,196.38
2024-04-16T06:26:28.574Z,197.57
2024-04-16T06:27:28.571Z,197.16
2024-04-16T06:28:28.612Z,197.62
2024-04-16T06:29:28.593Z,198.37
2024-04-16T06:30:29.086Z,196.66
2024-04-16T06:31:31.250Z,196.96
2024-04-16T06:32:28.793Z,197.13
2024-04-16T06:33:28.731Z,198.08
2024-04-16T06:34:29.601Z,201.25
2024-04-16T06:35:29.085Z,208.52
2024-04-16T06:36:28.649Z,216.48
2024-04-16T06:37:43.612Z,205.43
2024-04-16T06:38:28.649Z,205.69
2024-04-16T06:39:28.635Z,206.93
2024-04-16T06:41:04.127Z,209.58
2024-04-16T06:41:28.704Z,205.77
2024-04-16T06:42:28.732Z,209.04
2024-04-16T06:43:28.796Z,214.89
2024-04-16T06:44:28.803Z,223.61
2024-04-16T06:45:28.817Z,235.27
2024-04-16T06:46:28.869Z,236.71
2024-04-16T06:47:28.870Z,220.22
2024-04-16T06:48:28.965Z,207.62
2024-04-16T06:49:29.051Z,199.00
2024-04-16T06:50:29.124Z,200.00
2024-04-16T06:51:28.957Z,199.04
2024-04-16T06:52:29.033Z,200.00
2024-04-16T06:53:29.002Z,199.30
2024-04-16T06:54:29.027Z,199.49
2024-04-16T06:55:29.062Z,199.25
2024-04-16T06:56:32.092Z,198.00
2024-04-16T06:57:29.167Z,199.07
2024-04-16T06:58:29.117Z,200.00
2024-04-16T06:59:29.094Z,199.64
2024-04-16T07:00:29.143Z,199.54
2024-04-16T07:01:29.144Z,199.24
2024-04-16T07:02:44.134Z,199.46
2024-04-16T07:03:29.158Z,199.66
2024-04-16T07:04:29.121Z,200.38
2024-04-16T07:05:40.103Z,201.96
2024-04-16T07:06:29.115Z,199.82
2024-04-16T07:07:29.123Z,200.90
2024-04-16T07:08:29.115Z,202.96
2024-04-16T07:09:29.108Z,205.56
2024-04-16T07:10:29.147Z,207.74
2024-04-16T07:11:29.144Z,200.76
2024-04-16T07:12:29.116Z,198.96
2024-04-16T07:13:29.236Z,199.42
2024-04-16T07:14:29.129Z,199.95
2024-04-16T07:15:29.146Z,199.29
2024-04-16T07:16:29.279Z,197.89
2024-04-16T07:17:29.180Z,199.11
2024-04-16T07:18:29.162Z,198.98
2024-04-16T07:19:29.196Z,199.62
2024-04-16T07:20:29.158Z,199.97
2024-04-16T07:21:29.162Z,197.91
2024-04-16T07:22:29.259Z,199.57
2024-04-16T07:23:29.165Z,195.65
2024-04-16T07:24:45.621Z,200.00
2024-04-16T07:25:29.178Z,200.18
2024-04-16T07:26:29.608Z,200.77
2024-04-16T07:27:44.126Z,201.27
2024-04-16T07:28:29.177Z,200.04
2024-04-16T07:29:29.163Z,183.92
2024-04-16T07:30:54.805Z,165.69
2024-04-16T07:31:38.497Z,169.51
2024-04-16T07:32:30.351Z,160.35
2024-04-16T07:33:32.217Z,150.04
2024-04-16T07:34:29.249Z,145.25
2024-04-16T07:35:29.633Z,143.01
2024-04-16T07:36:29.266Z,140.64
2024-04-16T07:37:29.333Z,140.98
2024-04-16T07:38:29.384Z,142.94
2024-04-16T07:39:29.313Z,145.98
2024-04-16T07:40:29.650Z,146.96
2024-04-16T07:41:29.330Z,149.63
2024-04-16T07:42:29.340Z,150.47
2024-04-16T07:43:29.365Z,152.86
2024-04-16T07:44:29.370Z,155.64
2024-04-16T07:45:29.386Z,157.32
2024-04-16T07:46:32.137Z,158.23
2024-04-16T07:47:29.495Z,158.34
2024-04-16T07:48:29.387Z,158.88
2024-04-16T07:49:29.441Z,160.08
2024-04-16T07:50:29.401Z,164.18
2024-04-16T07:51:29.400Z,169.83
2024-04-16T07:52:50.409Z,174.08
2024-04-16T07:53:29.405Z,174.28
2024-04-16T07:54:29.415Z,175.27
2024-04-16T07:55:50.476Z,176.44
2024-04-16T07:56:29.422Z,174.40
2024-04-16T07:57:29.441Z,175.16
2024-04-16T07:58:52.616Z,171.10
2024-04-16T07:59:29.457Z,174.12
2024-04-16T08:00:29.474Z,163.98
2024-04-16T08:01:29.514Z,152.13
2024-04-16T08:02:29.520Z,142.71
2024-04-16T08:03:29.498Z,141.75
2024-04-16T08:04:29.594Z,142.53
2024-04-16T08:05:29.486Z,145.80
2024-04-16T08:06:29.524Z,147.18
2024-04-16T08:07:29.604Z,151.28
2024-04-16T08:08:35.735Z,153.01
2024-04-16T08:09:30.629Z,153.13
2024-04-16T08:10:29.668Z,153.59
2024-04-16T08:11:29.698Z,155.18
2024-04-16T08:12:29.646Z,157.97
2024-04-16T08:13:29.700Z,162.90
2024-04-16T08:14:29.653Z,165.16
2024-04-16T08:15:29.660Z,169.24
2024-04-16T08:16:29.753Z,170.20
2024-04-16T08:17:29.775Z,172.14
2024-04-16T08:18:29.741Z,172.95
2024-04-16T08:19:29.749Z,167.96
2024-04-16T08:20:48.134Z,163.48
2024-04-16T08:21:29.735Z,163.50
2024-04-16T08:22:29.723Z,155.04
2024-04-16T08:23:44.626Z,146.57
2024-04-16T08:24:29.728Z,148.32
2024-04-16T08:25:29.770Z,135.42
2024-04-16T08:27:05.638Z,122.23
2024-04-16T08:27:29.755Z,135.70
2024-04-16T08:28:29.823Z,122.95
2024-04-16T08:29:29.813Z,115.14
2024-04-16T08:30:30.137Z,110.49
2024-04-16T08:31:29.924Z,107.48
2024-04-16T08:32:29.968Z,106.98
2024-04-16T08:33:30.082Z,104.65
2024-04-16T08:34:30.033Z,104.54
2024-04-16T08:35:30.017Z,103.15
2024-04-16T08:36:29.965Z,99.63
2024-04-16T08:37:30.058Z,96.26
2024-04-16T08:38:30.151Z,94.27
2024-04-16T08:39:30.157Z,92.48
2024-04-16T08:40:30.213Z,89.45
2024-04-16T08:41:30.136Z,91.27
2024-04-16T08:42:32.636Z,92.85
2024-04-16T08:43:30.401Z,92.92
2024-04-16T08:44:30.513Z,93.73
2024-04-16T08:45:51.459Z,96.44
2024-04-16T08:46:30.524Z,93.19
2024-04-16T08:47:30.518Z,95.40
2024-04-16T08:48:30.510Z,100.30
2024-04-16T08:49:30.549Z,109.59
2024-04-16T08:50:30.563Z,123.50
2024-04-16T08:51:51.564Z,133.16
2024-04-16T08:52:30.615Z,133.39
2024-04-16T08:53:30.572Z,134.62
2024-04-16T08:54:30.573Z,137.43
2024-04-16T08:55:30.643Z,143.07
2024-04-16T08:56:30.590Z,151.42
2024-04-16T08:57:30.591Z,157.87
2024-04-16T08:58:30.669Z,157.94
2024-04-16T08:59:33.838Z,160.50
2024-04-16T09:00:30.672Z,160.60
2024-04-16T09:01:37.909Z,50.00
2024-04-16T09:02:37.892Z,50.00
2024-04-16T09:03:37.854Z,50.00
2024-04-16T09:04:38.059Z,50.00
2024-04-16T09:05:37.847Z,50.00
2024-04-16T09:06:37.817Z,51.53
2024-04-16T09:07:37.882Z,57.48
2024-04-16T09:08:37.809Z,52.70
2024-04-16T09:09:37.903Z,56.15
2024-04-16T09:10:38.137Z,53.68
2024-04-16T09:11:38.056Z,56.81
2024-04-16T09:12:37.762Z,58.62
2024-04-16T09:13:40.541Z,58.53
2024-04-16T09:14:37.742Z,61.40
2024-04-16T09:15:37.994Z,59.07
2024-04-16T09:16:58.817Z,64.01
2024-04-16T09:17:37.828Z,64.38
2024-04-16T09:18:37.747Z,65.61
2024-04-16T09:19:52.592Z,68.58
2024-04-16T09:20:37.681Z,64.64
2024-04-16T09:21:37.671Z,67.16
2024-04-16T09:23:04.963Z,68.75
2024-04-16T09:23:38.661Z,64.68
2024-04-16T09:24:37.645Z,68.58
2024-04-16T09:25:37.681Z,73.72
2024-04-16T09:26:37.620Z,78.09
2024-04-16T09:27:37.602Z,83.91
2024-04-16T09:28:38.012Z,76.29
2024-04-16T09:29:37.599Z,79.36
2024-04-16T09:30:38.501Z,80.10
2024-04-16T09:31:37.666Z,73.09
2024-04-16T09:32:37.568Z,67.27
2024-04-16T09:33:39.270Z,67.47
2024-04-16T09:34:37.532Z,66.40
2024-04-16T09:35:37.987Z,67.69
2024-04-16T09:36:37.496Z,70.42
2024-04-16T09:37:40.707Z,66.70
2024-04-16T09:38:43.997Z,67.04
2024-04-16T09:39:37.611Z,67.15
2024-04-16T09:40:37.689Z,68.65
2024-04-16T09:41:51.988Z,69.54
2024-04-16T09:42:37.750Z,67.21
2024-04-16T09:43:37.643Z,69.09
2024-04-16T09:44:58.675Z,71.00
2024-04-16T09:45:37.968Z,67.19
2024-04-16T09:46:37.759Z,69.24
2024-04-16T09:48:00.765Z,72.06
2024-04-16T09:48:37.567Z,67.34
2024-04-16T09:49:45.174Z,69.36
2024-04-16T09:50:46.983Z,67.22
2024-04-16T09:51:38.563Z,67.22
2024-04-16T09:52:37.599Z,67.84
2024-04-16T09:53:37.548Z,68.58
2024-04-16T09:54:37.525Z,66.74
2024-04-16T09:55:38.091Z,62.84
2024-04-16T09:56:37.506Z,55.93
2024-04-16T09:57:37.509Z,50.00
2024-04-16T09:58:37.517Z,51.21
2024-04-16T09:59:37.478Z,51.78
2024-04-16T10:00:38.306Z,50.00
2024-04-16T10:01:37.480Z,50.00
2024-04-16T10:02:37.468Z,50.00
2024-04-16T10:03:37.570Z,50.16
2024-04-16T10:04:37.426Z,50.00
2024-04-16T10:05:37.378Z,51.70
2024-04-16T10:06:40.502Z,50.03
2024-04-16T10:07:37.435Z,44.92
2024-04-16T10:08:37.347Z,35.86
2024-04-16T10:09:58.329Z,30.25
2024-04-16T10:10:37.396Z,46.18
2024-04-16T10:11:37.407Z,33.83
2024-04-16T10:12:58.283Z,22.99
2024-04-16T10:13:37.336Z,34.24
2024-04-16T10:14:37.297Z,18.43
2024-04-16T10:16:05.011Z,9.24
2024-04-16T10:16:37.283Z,31.17
2024-04-16T10:17:37.262Z,15.66
2024-04-16T10:18:37.228Z,1.38
2024-04-16T10:19:38.105Z,0.00
2024-04-16T10:20:37.232Z,0.00
2024-04-16T10:21:37.207Z,0.00
2024-04-16T10:22:44.636Z,2.99
2024-04-16T10:23:38.188Z,1.30
2024-04-16T10:24:37.188Z,0.00
2024-04-16T10:25:37.287Z,0.00
2024-04-16T10:26:37.180Z,0.00
2024-04-16T10:27:37.156Z,0.00
2024-04-16T10:28:37.235Z,0.00
2024-04-16T10:29:37.162Z,15.70
2024-04-16T10:30:37.162Z,32.78
2024-04-16T10:31:37.538Z,49.84
2024-04-16T10:32:37.177Z,52.36
2024-04-16T10:33:37.445Z,51.55
2024-04-16T10:34:53.526Z,50.07
2024-04-16T10:35:37.122Z,50.22
2024-04-16T10:36:37.176Z,50.41
2024-04-16T10:37:52.086Z,46.76
2024-04-16T10:38:37.100Z,50.17
2024-04-16T10:39:37.139Z,47.56
2024-04-16T10:41:00.511Z,40.78
2024-04-16T10:41:37.125Z,50.17
2024-04-16T10:42:37.154Z,45.92
2024-04-16T10:43:37.264Z,42.66
2024-04-16T10:44:37.218Z,36.78
2024-04-16T10:45:37.246Z,31.87
2024-04-16T10:46:37.417Z,41.44
2024-04-16T10:47:37.319Z,50.69
2024-04-16T10:48:37.337Z,50.00
2024-04-16T10:49:37.405Z,52.03
2024-04-16T10:50:37.405Z,52.17
2024-04-16T10:51:37.440Z,50.68
2024-04-16T10:52:37.585Z,51.68
2024-04-16T10:53:37.522Z,50.00
2024-04-16T10:54:37.543Z,53.55
2024-04-16T10:55:37.661Z,50.95
2024-04-16T10:56:37.626Z,49.94
2024-04-16T10:57:37.654Z,50.00
2024-04-16T10:58:37.753Z,52.43
2024-04-16T10:59:37.723Z,50.78
2024-04-16T11:00:37.796Z,50.22
2024-04-16T11:01:37.856Z,50.74
2024-04-16T11:02:52.040Z,52.67
2024-04-16T11:03:37.953Z,52.85
2024-04-16T11:04:37.896Z,53.10
2024-04-16T11:06:05.522Z,53.34
2024-04-16T11:06:37.807Z,52.82
2024-04-16T11:07:37.926Z,53.27
2024-04-16T11:08:37.819Z,53.14
2024-04-16T11:09:37.786Z,53.17
2024-04-16T11:10:38.082Z,55.00
2024-04-16T11:11:37.838Z,52.77
2024-04-16T11:12:37.782Z,59.29
2024-04-16T11:13:37.842Z,54.05
2024-04-16T11:14:37.769Z,53.05
2024-04-16T11:15:38.038Z,55.49
2024-04-16T11:16:37.815Z,59.07
2024-04-16T11:17:37.862Z,58.02
2024-04-16T11:18:37.788Z,62.63
2024-04-16T11:19:37.805Z,59.20
2024-04-16T11:20:37.759Z,63.36
2024-04-16T11:21:37.771Z,61.87
2024-04-16T11:22:37.762Z,65.51
2024-04-16T11:23:37.731Z,66.16
2024-04-16T11:24:54.707Z,66.60
2024-04-16T11:25:37.732Z,66.81
2024-04-16T11:26:37.704Z,67.39
2024-04-16T11:27:45.039Z,68.29
2024-04-16T11:28:37.748Z,66.79
2024-04-16T11:29:37.711Z,66.90
2024-04-16T11:30:59.081Z,64.44
2024-04-16T11:31:37.723Z,66.78
2024-04-16T11:32:37.675Z,63.92
2024-04-16T11:33:58.806Z,64.58
2024-04-16T11:34:37.692Z,66.72
2024-04-16T11:35:37.647Z,66.91
2024-04-16T11:36:37.630Z,64.75
2024-04-16T11:37:38.903Z,59.91
2024-04-16T11:38:37.626Z,57.23
2024-04-16T11:39:37.636Z,52.14
2024-04-16T11:40:37.714Z,49.94
2024-04-16T11:41:37.619Z,49.85
2024-04-16T11:42:37.611Z,44.29
2024-04-16T11:43:37.809Z,51.57
2024-04-16T11:44:37.605Z,53.65
2024-04-16T11:45:37.616Z,48.84
2024-04-16T11:46:37.661Z,51.07
2024-04-16T11:47:37.636Z,49.66
2024-04-16T11:48:37.608Z,51.12
2024-04-16T11:49:37.622Z,50.27
2024-04-16T11:50:37.605Z,50.00
2024-04-16T11:51:37.605Z,53.95
2024-04-16T11:52:40.627Z,52.14
2024-04-16T11:53:37.603Z,52.19
2024-04-16T11:54:37.595Z,52.34
2024-04-16T11:55:52.557Z,51.40
2024-04-16T11:56:37.591Z,52.24
2024-04-16T11:57:37.586Z,52.37
2024-04-16T11:58:52.593Z,52.85
2024-04-16T11:59:37.578Z,52.29
2024-04-16T12:00:37.568Z,52.75
2024-04-16T12:01:37.671Z,52.77
2024-04-16T12:02:37.561Z,50.93
2024-04-16T12:03:37.645Z,50.45
2024-04-16T12:04:37.663Z,52.74
2024-04-16T12:05:37.611Z,53.49
2024-04-16T12:06:37.553Z,52.78
2024-04-16T12:07:37.555Z,50.35
2024-04-16T12:08:37.545Z,40.42
2024-04-16T12:09:37.534Z,51.25
2024-04-16T12:10:37.574Z,54.38
2024-04-16T12:11:37.614Z,63.21
2024-04-16T12:12:37.528Z,73.43
2024-04-16T12:13:37.574Z,79.45
2024-04-16T12:14:37.526Z,83.10
2024-04-16T12:15:37.532Z,87.57
2024-04-16T12:16:37.642Z,88.91
2024-04-16T12:17:37.587Z,93.21
2024-04-16T12:18:37.522Z,91.74
2024-04-16T12:19:37.546Z,90.34
2024-04-16T12:20:52.053Z,89.68
2024-04-16T12:21:37.716Z,89.88
2024-04-16T12:22:37.768Z,90.32
2024-04-16T12:23:44.553Z,90.67
2024-04-16T12:24:37.760Z,89.70
2024-04-16T12:25:37.794Z,87.96
2024-04-16T12:26:52.085Z,83.96
2024-04-16T12:27:37.739Z,89.69
2024-04-16T12:28:37.893Z,87.16
2024-04-16T12:29:37.807Z,80.69
2024-04-16T12:30:37.850Z,77.76
2024-04-16T12:31:38.003Z,77.01
2024-04-16T12:32:37.993Z,78.15
2024-04-16T12:33:38.111Z,80.61
2024-04-16T12:34:38.052Z,80.92
2024-04-16T12:35:38.044Z,74.77
2024-04-16T12:36:38.079Z,72.46
2024-04-16T12:37:38.133Z,68.43
2024-04-16T12:38:38.179Z,67.95
2024-04-16T12:39:38.193Z,74.10
2024-04-16T12:40:38.375Z,79.00
2024-04-16T12:41:38.275Z,84.13
2024-04-16T12:42:38.303Z,84.98
2024-04-16T12:43:38.395Z,89.26
2024-04-16T12:44:38.374Z,90.45
2024-04-16T12:45:55.682Z,92.37
2024-04-16T12:46:38.438Z,92.59